sensor_id;sensor_type;location;lat;lon;timestamp;P1;durP1;ratioP1;P2;durP2;ratioP2
50393;SDS011;36308;46.312;25.288;2023-09-08T00:02:27;5.32;;;3.75;;
50393;SDS011;36308;46.312;25.288;2023-09-08T00:04:53;5.07;;;3.58;;
50393;SDS011;36308;46.312;25.288;2023-09-08T00:07:19;5.97;;;4.18;;
50393;SDS011;36308;46.312;25.288;2023-09-08T00:09:45;6.22;;;3.72;;
50393;SDS011;36308;46.312;25.288;2023-09-08T00:12:11;5.55;;;3.72;;
50393;SDS011;36308;46.312;25.288;2023-09-08T00:14:36;6.22;;;3.88;;
50393;SDS011;36308;46.312;25.288;2023-09-08T00:17:02;6.05;;;4.05;;
50393;SDS011;36308;46.312;25.288;2023-09-08T00:19:28;5.90;;;3.65;;
50393;SDS011;36308;46.312;25.288;2023-09-08T00:21:53;7.10;;;3.90;;
50393;SDS011;36308;46.312;25.288;2023-09-08T00:24:19;5.45;;;3.80;;
50393;SDS011;36308;46.312;25.288;2023-09-08T00:26:44;7.35;;;4.22;;
50393;SDS011;36308;46.312;25.288;2023-09-08T00:29:10;6.82;;;3.75;;
50393;SDS011;36308;46.312;25.288;2023-09-08T00:31:35;8.10;;;4.10;;
50393;SDS011;36308;46.312;25.288;2023-09-08T00:34:01;8.05;;;4.28;;
50393;SDS011;36308;46.312;25.288;2023-09-08T00:36:26;5.70;;;3.85;;
50393;SDS011;36308;46.312;25.288;2023-09-08T00:38:52;9.98;;;4.20;;
50393;SDS011;36308;46.312;25.288;2023-09-08T00:41:17;5.10;;;4.03;;
50393;SDS011;36308;46.312;25.288;2023-09-08T00:43:43;7.38;;;3.88;;
50393;SDS011;36308;46.312;25.288;2023-09-08T00:46:08;6.78;;;4.10;;
50393;SDS011;36308;46.312;25.288;2023-09-08T00:48:34;6.47;;;3.67;;
50393;SDS011;36308;46.312;25.288;2023-09-08T00:51:00;6.75;;;3.78;;
50393;SDS011;36308;46.312;25.288;2023-09-08T00:53:26;6.35;;;4.05;;
50393;SDS011;36308;46.312;25.288;2023-09-08T00:55:52;7.78;;;4.03;;
50393;SDS011;36308;46.312;25.288;2023-09-08T00:58:19;8.82;;;4.00;;
50393;SDS011;36308;46.312;25.288;2023-09-08T01:00:45;5.70;;;3.78;;
50393;SDS011;36308;46.312;25.288;2023-09-08T01:03:11;5.07;;;3.55;;
50393;SDS011;36308;46.312;25.288;2023-09-08T01:05:37;5.15;;;3.65;;
50393;SDS011;36308;46.312;25.288;2023-09-08T01:08:03;5.93;;;3.78;;
50393;SDS011;36308;46.312;25.288;2023-09-08T01:10:30;6.57;;;4.10;;
50393;SDS011;36308;46.312;25.288;2023-09-08T01:12:56;5.43;;;3.97;;
50393;SDS011;36308;46.312;25.288;2023-09-08T01:15:22;6.00;;;3.83;;
50393;SDS011;36308;46.312;25.288;2023-09-08T01:17:47;5.78;;;3.78;;
50393;SDS011;36308;46.312;25.288;2023-09-08T01:20:17;7.00;;;4.25;;
50393;SDS011;36308;46.312;25.288;2023-09-08T01:25:49;6.40;;;3.90;;
50393;SDS011;36308;46.312;25.288;2023-09-08T01:28:20;6.18;;;4.07;;
50393;SDS011;36308;46.312;25.288;2023-09-08T01:30:47;5.60;;;4.20;;
50393;SDS011;36308;46.312;25.288;2023-09-08T01:33:13;5.40;;;3.95;;
50393;SDS011;36308;46.312;25.288;2023-09-08T01:35:38;5.70;;;3.58;;
50393;SDS011;36308;46.312;25.288;2023-09-08T01:38:04;6.15;;;3.72;;
50393;SDS011;36308;46.312;25.288;2023-09-08T01:40:30;8.68;;;4.57;;
50393;SDS011;36308;46.312;25.288;2023-09-08T01:42:55;6.07;;;4.10;;
50393;SDS011;36308;46.312;25.288;2023-09-08T01:45:21;7.30;;;4.20;;
50393;SDS011;36308;46.312;25.288;2023-09-08T01:47:46;5.32;;;3.75;;
50393;SDS011;36308;46.312;25.288;2023-09-08T01:50:12;7.00;;;4.47;;
50393;SDS011;36308;46.312;25.288;2023-09-08T01:52:37;6.15;;;4.05;;
50393;SDS011;36308;46.312;25.288;2023-09-08T01:55:03;5.68;;;3.78;;
50393;SDS011;36308;46.312;25.288;2023-09-08T01:57:29;6.45;;;4.32;;
50393;SDS011;36308;46.312;25.288;2023-09-08T01:59:54;5.40;;;4.60;;
50393;SDS011;36308;46.312;25.288;2023-09-08T02:02:20;4.75;;;3.60;;
50393;SDS011;36308;46.312;25.288;2023-09-08T02:04:45;5.55;;;3.83;;
50393;SDS011;36308;46.312;25.288;2023-09-08T02:07:11;6.80;;;4.15;;
50393;SDS011;36308;46.312;25.288;2023-09-08T02:09:37;6.47;;;4.18;;
50393;SDS011;36308;46.312;25.288;2023-09-08T02:12:03;7.35;;;4.00;;
50393;SDS011;36308;46.312;25.288;2023-09-08T02:14:29;7.55;;;4.13;;
50393;SDS011;36308;46.312;25.288;2023-09-08T02:16:55;6.15;;;4.00;;
50393;SDS011;36308;46.312;25.288;2023-09-08T02:19:21;5.90;;;3.95;;
50393;SDS011;36308;46.312;25.288;2023-09-08T02:21:47;6.00;;;4.30;;
50393;SDS011;36308;46.312;25.288;2023-09-08T02:24:13;7.85;;;4.45;;
50393;SDS011;36308;46.312;25.288;2023-09-08T02:26:39;7.75;;;4.30;;
50393;SDS011;36308;46.312;25.288;2023-09-08T02:29:04;6.05;;;4.15;;
50393;SDS011;36308;46.312;25.288;2023-09-08T02:31:30;6.32;;;4.20;;
50393;SDS011;36308;46.312;25.288;2023-09-08T02:33:55;7.70;;;4.50;;
50393;SDS011;36308;46.312;25.288;2023-09-08T02:36:21;5.93;;;4.22;;
50393;SDS011;36308;46.312;25.288;2023-09-08T02:38:53;6.50;;;4.47;;
50393;SDS011;36308;46.312;25.288;2023-09-08T02:41:19;7.25;;;4.38;;
50393;SDS011;36308;46.312;25.288;2023-09-08T02:43:45;7.35;;;4.30;;
50393;SDS011;36308;46.312;25.288;2023-09-08T02:46:11;7.03;;;4.20;;
50393;SDS011;36308;46.312;25.288;2023-09-08T02:48:37;6.57;;;4.70;;
50393;SDS011;36308;46.312;25.288;2023-09-08T02:51:03;7.28;;;4.03;;
50393;SDS011;36308;46.312;25.288;2023-09-08T02:53:28;6.85;;;4.70;;
50393;SDS011;36308;46.312;25.288;2023-09-08T02:55:54;7.00;;;4.53;;
50393;SDS011;36308;46.312;25.288;2023-09-08T02:58:20;6.88;;;4.00;;
50393;SDS011;36308;46.312;25.288;2023-09-08T03:00:46;9.30;;;6.50;;
50393;SDS011;36308;46.312;25.288;2023-09-08T03:03:12;8.07;;;6.78;;
50393;SDS011;36308;46.312;25.288;2023-09-08T03:05:37;8.32;;;6.10;;
50393;SDS011;36308;46.312;25.288;2023-09-08T03:08:03;10.05;;;5.43;;
50393;SDS011;36308;46.312;25.288;2023-09-08T03:10:30;8.75;;;4.85;;
50393;SDS011;36308;46.312;25.288;2023-09-08T03:12:59;7.22;;;5.40;;
50393;SDS011;36308;46.312;25.288;2023-09-08T03:15:26;7.55;;;4.80;;
50393;SDS011;36308;46.312;25.288;2023-09-08T03:17:54;7.03;;;4.28;;
50393;SDS011;36308;46.312;25.288;2023-09-08T03:20:20;5.78;;;4.03;;
50393;SDS011;36308;46.312;25.288;2023-09-08T03:22:46;8.15;;;4.40;;
50393;SDS011;36308;46.312;25.288;2023-09-08T03:25:15;6.78;;;4.10;;
50393;SDS011;36308;46.312;25.288;2023-09-08T03:27:41;6.68;;;4.53;;
50393;SDS011;36308;46.312;25.288;2023-09-08T03:30:06;6.35;;;4.32;;
50393;SDS011;36308;46.312;25.288;2023-09-08T03:32:32;9.55;;;4.60;;
50393;SDS011;36308;46.312;25.288;2023-09-08T03:34:58;6.03;;;4.13;;
50393;SDS011;36308;46.312;25.288;2023-09-08T03:37:23;6.57;;;4.60;;
50393;SDS011;36308;46.312;25.288;2023-09-08T03:39:51;9.48;;;4.32;;
50393;SDS011;36308;46.312;25.288;2023-09-08T03:42:17;9.45;;;4.10;;
50393;SDS011;36308;46.312;25.288;2023-09-08T03:44:43;9.77;;;4.82;;
50393;SDS011;36308;46.312;25.288;2023-09-08T03:47:08;6.15;;;4.30;;
50393;SDS011;36308;46.312;25.288;2023-09-08T03:49:34;8.43;;;4.43;;
50393;SDS011;36308;46.312;25.288;2023-09-08T03:51:59;7.82;;;4.15;;
50393;SDS011;36308;46.312;25.288;2023-09-08T03:54:25;10.15;;;4.60;;
50393;SDS011;36308;46.312;25.288;2023-09-08T03:56:50;7.32;;;4.55;;
50393;SDS011;36308;46.312;25.288;2023-09-08T03:59:15;5.63;;;4.25;;
50393;SDS011;36308;46.312;25.288;2023-09-08T04:01:41;8.00;;;4.60;;
50393;SDS011;36308;46.312;25.288;2023-09-08T04:04:07;6.60;;;4.80;;
50393;SDS011;36308;46.312;25.288;2023-09-08T04:06:33;7.10;;;4.90;;
50393;SDS011;36308;46.312;25.288;2023-09-08T04:08:59;7.93;;;4.82;;
50393;SDS011;36308;46.312;25.288;2023-09-08T04:11:24;8.52;;;5.00;;
50393;SDS011;36308;46.312;25.288;2023-09-08T04:13:51;9.55;;;5.10;;
50393;SDS011;36308;46.312;25.288;2023-09-08T04:16:16;8.20;;;5.30;;
50393;SDS011;36308;46.312;25.288;2023-09-08T04:18:42;9.73;;;5.03;;
50393;SDS011;36308;46.312;25.288;2023-09-08T04:21:07;10.10;;;6.05;;
50393;SDS011;36308;46.312;25.288;2023-09-08T04:23:33;15.20;;;9.23;;
50393;SDS011;36308;46.312;25.288;2023-09-08T04:25:58;27.45;;;12.80;;
50393;SDS011;36308;46.312;25.288;2023-09-08T04:28:24;18.70;;;10.63;;
50393;SDS011;36308;46.312;25.288;2023-09-08T04:30:50;28.48;;;13.65;;
50393;SDS011;36308;46.312;25.288;2023-09-08T04:33:15;24.80;;;11.02;;
50393;SDS011;36308;46.312;25.288;2023-09-08T04:35:41;26.42;;;12.95;;
50393;SDS011;36308;46.312;25.288;2023-09-08T04:38:06;28.10;;;14.10;;
50393;SDS011;36308;46.312;25.288;2023-09-08T04:40:32;26.95;;;13.45;;
50393;SDS011;36308;46.312;25.288;2023-09-08T04:42:58;27.35;;;13.60;;
50393;SDS011;36308;46.312;25.288;2023-09-08T04:45:24;27.08;;;14.40;;
50393;SDS011;36308;46.312;25.288;2023-09-08T04:47:50;55.22;;;32.72;;
50393;SDS011;36308;46.312;25.288;2023-09-08T04:50:15;44.45;;;24.30;;
50393;SDS011;36308;46.312;25.288;2023-09-08T04:52:41;35.13;;;19.27;;
50393;SDS011;36308;46.312;25.288;2023-09-08T04:55:07;26.23;;;14.18;;
50393;SDS011;36308;46.312;25.288;2023-09-08T04:57:32;26.10;;;16.33;;
50393;SDS011;36308;46.312;25.288;2023-09-08T04:59:58;23.42;;;17.55;;
50393;SDS011;36308;46.312;25.288;2023-09-08T05:02:23;16.02;;;8.90;;
50393;SDS011;36308;46.312;25.288;2023-09-08T05:04:49;37.05;;;26.10;;
50393;SDS011;36308;46.312;25.288;2023-09-08T05:07:14;15.00;;;9.10;;
50393;SDS011;36308;46.312;25.288;2023-09-08T05:09:40;13.45;;;7.72;;
50393;SDS011;36308;46.312;25.288;2023-09-08T05:12:06;14.45;;;7.60;;
50393;SDS011;36308;46.312;25.288;2023-09-08T05:14:31;10.50;;;7.80;;
50393;SDS011;36308;46.312;25.288;2023-09-08T05:16:57;20.42;;;9.57;;
50393;SDS011;36308;46.312;25.288;2023-09-08T05:19:22;18.25;;;14.50;;
50393;SDS011;36308;46.312;25.288;2023-09-08T05:21:53;19.85;;;14.07;;
50393;SDS011;36308;46.312;25.288;2023-09-08T05:24:19;11.68;;;9.18;;
50393;SDS011;36308;46.312;25.288;2023-09-08T05:26:45;11.23;;;7.68;;
50393;SDS011;36308;46.312;25.288;2023-09-08T05:29:11;12.05;;;8.77;;
50393;SDS011;36308;46.312;25.288;2023-09-08T05:31:37;13.00;;;8.55;;
50393;SDS011;36308;46.312;25.288;2023-09-08T05:34:02;15.07;;;9.00;;
50393;SDS011;36308;46.312;25.288;2023-09-08T05:36:28;12.82;;;8.90;;
50393;SDS011;36308;46.312;25.288;2023-09-08T05:38:55;12.07;;;8.15;;
50393;SDS011;36308;46.312;25.288;2023-09-08T05:41:21;12.82;;;9.80;;
50393;SDS011;36308;46.312;25.288;2023-09-08T05:43:46;17.33;;;10.55;;
50393;SDS011;36308;46.312;25.288;2023-09-08T05:46:12;14.93;;;10.30;;
50393;SDS011;36308;46.312;25.288;2023-09-08T05:48:38;13.65;;;10.18;;
50393;SDS011;36308;46.312;25.288;2023-09-08T05:51:03;17.20;;;9.75;;
50393;SDS011;36308;46.312;25.288;2023-09-08T05:53:31;14.65;;;9.55;;
50393;SDS011;36308;46.312;25.288;2023-09-08T05:55:57;19.40;;;9.80;;
50393;SDS011;36308;46.312;25.288;2023-09-08T05:58:23;15.35;;;10.45;;
50393;SDS011;36308;46.312;25.288;2023-09-08T06:00:52;11.90;;;9.05;;
50393;SDS011;36308;46.312;25.288;2023-09-08T06:03:18;13.52;;;9.10;;
50393;SDS011;36308;46.312;25.288;2023-09-08T06:05:44;16.67;;;10.40;;
50393;SDS011;36308;46.312;25.288;2023-09-08T06:08:09;17.95;;;13.38;;
50393;SDS011;36308;46.312;25.288;2023-09-08T06:10:35;16.23;;;9.45;;
50393;SDS011;36308;46.312;25.288;2023-09-08T06:13:00;14.20;;;8.07;;
50393;SDS011;36308;46.312;25.288;2023-09-08T06:15:26;13.13;;;7.05;;
50393;SDS011;36308;46.312;25.288;2023-09-08T06:17:52;13.75;;;7.75;;
50393;SDS011;36308;46.312;25.288;2023-09-08T06:20:17;14.98;;;8.48;;
50393;SDS011;36308;46.312;25.288;2023-09-08T06:22:43;13.10;;;7.97;;
50393;SDS011;36308;46.312;25.288;2023-09-08T06:25:08;14.77;;;7.72;;
50393;SDS011;36308;46.312;25.288;2023-09-08T06:27:34;17.48;;;7.80;;
50393;SDS011;36308;46.312;25.288;2023-09-08T06:30:00;14.35;;;6.93;;
50393;SDS011;36308;46.312;25.288;2023-09-08T06:32:25;13.30;;;6.88;;
50393;SDS011;36308;46.312;25.288;2023-09-08T06:34:51;12.27;;;7.32;;
50393;SDS011;36308;46.312;25.288;2023-09-08T06:37:16;13.57;;;7.18;;
50393;SDS011;36308;46.312;25.288;2023-09-08T06:39:42;11.05;;;6.57;;
50393;SDS011;36308;46.312;25.288;2023-09-08T06:42:07;16.15;;;7.18;;
50393;SDS011;36308;46.312;25.288;2023-09-08T06:44:33;14.38;;;6.88;;
50393;SDS011;36308;46.312;25.288;2023-09-08T06:46:58;16.90;;;8.45;;
50393;SDS011;36308;46.312;25.288;2023-09-08T06:49:24;11.13;;;7.63;;
50393;SDS011;36308;46.312;25.288;2023-09-08T06:51:49;14.23;;;8.00;;
50393;SDS011;36308;46.312;25.288;2023-09-08T06:54:15;12.40;;;7.35;;
50393;SDS011;36308;46.312;25.288;2023-09-08T06:56:40;11.70;;;7.05;;
50393;SDS011;36308;46.312;25.288;2023-09-08T06:59:06;8.82;;;6.70;;
50393;SDS011;36308;46.312;25.288;2023-09-08T07:01:31;12.63;;;8.05;;
50393;SDS011;36308;46.312;25.288;2023-09-08T07:03:57;13.25;;;7.28;;
50393;SDS011;36308;46.312;25.288;2023-09-08T07:06:22;11.20;;;6.70;;
50393;SDS011;36308;46.312;25.288;2023-09-08T07:08:48;12.80;;;6.85;;
50393;SDS011;36308;46.312;25.288;2023-09-08T07:11:17;11.02;;;6.10;;
50393;SDS011;36308;46.312;25.288;2023-09-08T07:13:42;12.60;;;8.35;;
50393;SDS011;36308;46.312;25.288;2023-09-08T07:16:08;10.27;;;6.10;;
50393;SDS011;36308;46.312;25.288;2023-09-08T07:18:33;9.98;;;5.68;;
50393;SDS011;36308;46.312;25.288;2023-09-08T07:21:01;7.70;;;5.00;;
50393;SDS011;36308;46.312;25.288;2023-09-08T07:23:27;6.50;;;4.50;;
50393;SDS011;36308;46.312;25.288;2023-09-08T07:25:53;11.25;;;4.30;;
50393;SDS011;36308;46.312;25.288;2023-09-08T07:28:18;7.95;;;4.20;;
50393;SDS011;36308;46.312;25.288;2023-09-08T07:30:44;6.45;;;4.72;;
50393;SDS011;36308;46.312;25.288;2023-09-08T07:33:10;7.97;;;4.20;;
50393;SDS011;36308;46.312;25.288;2023-09-08T07:35:38;8.00;;;3.70;;
50393;SDS011;36308;46.312;25.288;2023-09-08T07:38:05;6.45;;;4.07;;
50393;SDS011;36308;46.312;25.288;2023-09-08T07:40:31;6.13;;;4.07;;
50393;SDS011;36308;46.312;25.288;2023-09-08T07:42:58;4.60;;;3.45;;
50393;SDS011;36308;46.312;25.288;2023-09-08T07:45:23;5.78;;;3.88;;
50393;SDS011;36308;46.312;25.288;2023-09-08T07:47:49;8.20;;;3.83;;
50393;SDS011;36308;46.312;25.288;2023-09-08T07:52:45;5.70;;;3.47;;
50393;SDS011;36308;46.312;25.288;2023-09-08T07:55:12;5.30;;;3.67;;
50393;SDS011;36308;46.312;25.288;2023-09-08T07:57:37;5.07;;;3.20;;
50393;SDS011;36308;46.312;25.288;2023-09-08T08:00:03;6.25;;;3.38;;
50393;SDS011;36308;46.312;25.288;2023-09-08T08:02:29;7.22;;;3.55;;
50393;SDS011;36308;46.312;25.288;2023-09-08T08:04:56;5.22;;;3.58;;
50393;SDS011;36308;46.312;25.288;2023-09-08T08:07:22;6.38;;;3.38;;
50393;SDS011;36308;46.312;25.288;2023-09-08T08:09:47;6.07;;;3.10;;
50393;SDS011;36308;46.312;25.288;2023-09-08T08:12:13;5.80;;;3.05;;
50393;SDS011;36308;46.312;25.288;2023-09-08T08:14:38;7.03;;;3.35;;
50393;SDS011;36308;46.312;25.288;2023-09-08T08:17:04;4.38;;;2.80;;
50393;SDS011;36308;46.312;25.288;2023-09-08T08:19:29;6.00;;;3.25;;
50393;SDS011;36308;46.312;25.288;2023-09-08T08:21:55;5.78;;;3.30;;
50393;SDS011;36308;46.312;25.288;2023-09-08T08:24:22;5.05;;;3.17;;
50393;SDS011;36308;46.312;25.288;2023-09-08T08:26:48;4.70;;;3.33;;
50393;SDS011;36308;46.312;25.288;2023-09-08T08:29:13;5.03;;;3.22;;
50393;SDS011;36308;46.312;25.288;2023-09-08T08:31:40;4.70;;;2.88;;
50393;SDS011;36308;46.312;25.288;2023-09-08T08:34:05;4.72;;;2.95;;
50393;SDS011;36308;46.312;25.288;2023-09-08T08:36:31;9.55;;;2.97;;
50393;SDS011;36308;46.312;25.288;2023-09-08T08:38:56;3.95;;;2.80;;
50393;SDS011;36308;46.312;25.288;2023-09-08T08:41:22;4.60;;;3.03;;
50393;SDS011;36308;46.312;25.288;2023-09-08T08:43:48;5.40;;;3.20;;
50393;SDS011;36308;46.312;25.288;2023-09-08T08:46:15;4.43;;;3.33;;
50393;SDS011;36308;46.312;25.288;2023-09-08T08:48:42;4.43;;;3.08;;
50393;SDS011;36308;46.312;25.288;2023-09-08T08:51:10;4.85;;;3.70;;
50393;SDS011;36308;46.312;25.288;2023-09-08T08:53:36;5.13;;;3.42;;
50393;SDS011;36308;46.312;25.288;2023-09-08T08:56:04;4.43;;;3.08;;
50393;SDS011;36308;46.312;25.288;2023-09-08T08:58:33;4.03;;;3.05;;
50393;SDS011;36308;46.312;25.288;2023-09-08T09:01:00;5.28;;;3.30;;
50393;SDS011;36308;46.312;25.288;2023-09-08T09:03:27;5.78;;;2.92;;
50393;SDS011;36308;46.312;25.288;2023-09-08T09:05:54;6.50;;;3.25;;
50393;SDS011;36308;46.312;25.288;2023-09-08T09:08:19;6.25;;;2.95;;
50393;SDS011;36308;46.312;25.288;2023-09-08T09:10:47;5.07;;;2.97;;
50393;SDS011;36308;46.312;25.288;2023-09-08T09:13:13;4.25;;;3.10;;
50393;SDS011;36308;46.312;25.288;2023-09-08T09:15:39;5.15;;;3.00;;
50393;SDS011;36308;46.312;25.288;2023-09-08T09:18:05;6.40;;;3.42;;
50393;SDS011;36308;46.312;25.288;2023-09-08T09:20:32;14.32;;;3.33;;
50393;SDS011;36308;46.312;25.288;2023-09-08T09:22:58;4.13;;;2.88;;
50393;SDS011;36308;46.312;25.288;2023-09-08T09:25:28;6.32;;;3.53;;
50393;SDS011;36308;46.312;25.288;2023-09-08T09:27:56;5.57;;;3.35;;
50393;SDS011;36308;46.312;25.288;2023-09-08T09:30:24;4.03;;;3.13;;
50393;SDS011;36308;46.312;25.288;2023-09-08T09:35:45;6.18;;;2.92;;
50393;SDS011;36308;46.312;25.288;2023-09-08T09:38:12;5.43;;;3.13;;
50393;SDS011;36308;46.312;25.288;2023-09-08T09:40:39;5.75;;;3.03;;
50393;SDS011;36308;46.312;25.288;2023-09-08T09:43:05;5.70;;;3.20;;
50393;SDS011;36308;46.312;25.288;2023-09-08T09:45:35;5.63;;;3.00;;
50393;SDS011;36308;46.312;25.288;2023-09-08T09:48:03;4.93;;;2.92;;
50393;SDS011;36308;46.312;25.288;2023-09-08T09:53:01;4.35;;;3.03;;
50393;SDS011;36308;46.312;25.288;2023-09-08T09:55:33;6.13;;;3.92;;
50393;SDS011;36308;46.312;25.288;2023-09-08T09:58:02;8.68;;;3.65;;
50393;SDS011;36308;46.312;25.288;2023-09-08T10:00:31;4.25;;;2.88;;
50393;SDS011;36308;46.312;25.288;2023-09-08T10:02:59;5.30;;;3.03;;
50393;SDS011;36308;46.312;25.288;2023-09-08T10:05:25;4.43;;;3.13;;
50393;SDS011;36308;46.312;25.288;2023-09-08T10:07:52;4.57;;;3.33;;
50393;SDS011;36308;46.312;25.288;2023-09-08T10:10:18;5.13;;;2.53;;
50393;SDS011;36308;46.312;25.288;2023-09-08T10:12:45;3.47;;;2.92;;
50393;SDS011;36308;46.312;25.288;2023-09-08T10:15:19;5.18;;;3.30;;
50393;SDS011;36308;46.312;25.288;2023-09-08T10:17:46;4.88;;;2.85;;
50393;SDS011;36308;46.312;25.288;2023-09-08T10:20:17;6.32;;;3.22;;
50393;SDS011;36308;46.312;25.288;2023-09-08T10:22:46;7.45;;;3.38;;
50393;SDS011;36308;46.312;25.288;2023-09-08T10:25:18;7.13;;;3.00;;
50393;SDS011;36308;46.312;25.288;2023-09-08T10:27:46;5.18;;;2.80;;
50393;SDS011;36308;46.312;25.288;2023-09-08T10:30:13;5.30;;;3.15;;
50393;SDS011;36308;46.312;25.288;2023-09-08T10:32:41;3.50;;;3.15;;
50393;SDS011;36308;46.312;25.288;2023-09-08T10:35:08;4.25;;;2.80;;
50393;SDS011;36308;46.312;25.288;2023-09-08T10:37:34;6.40;;;3.28;;
50393;SDS011;36308;46.312;25.288;2023-09-08T10:40:42;3.55;;;2.78;;
50393;SDS011;36308;46.312;25.288;2023-09-08T10:42:53;5.63;;;3.15;;
50393;SDS011;36308;46.312;25.288;2023-09-08T10:45:31;5.38;;;2.70;;
50393;SDS011;36308;46.312;25.288;2023-09-08T10:47:56;3.40;;;2.70;;
50393;SDS011;36308;46.312;25.288;2023-09-08T10:50:41;4.55;;;2.65;;
50393;SDS011;36308;46.312;25.288;2023-09-08T11:01:08;6.65;;;3.13;;
50393;SDS011;36308;46.312;25.288;2023-09-08T11:06:07;4.78;;;3.05;;
50393;SDS011;36308;46.312;25.288;2023-09-08T11:08:41;4.90;;;3.30;;
50393;SDS011;36308;46.312;25.288;2023-09-08T11:11:07;6.82;;;2.97;;
50393;SDS011;36308;46.312;25.288;2023-09-08T11:13:35;3.88;;;2.88;;
50393;SDS011;36308;46.312;25.288;2023-09-08T11:16:01;6.78;;;3.28;;
50393;SDS011;36308;46.312;25.288;2023-09-08T11:18:28;4.38;;;3.00;;
50393;SDS011;36308;46.312;25.288;2023-09-08T11:20:54;6.22;;;3.28;;
50393;SDS011;36308;46.312;25.288;2023-09-08T11:23:21;5.95;;;2.97;;
50393;SDS011;36308;46.312;25.288;2023-09-08T11:25:47;4.80;;;3.20;;
50393;SDS011;36308;46.312;25.288;2023-09-08T11:28:15;5.03;;;3.13;;
50393;SDS011;36308;46.312;25.288;2023-09-08T11:30:41;6.03;;;3.20;;
50393;SDS011;36308;46.312;25.288;2023-09-08T11:33:20;5.65;;;2.67;;
50393;SDS011;36308;46.312;25.288;2023-09-08T11:35:53;4.53;;;2.80;;
50393;SDS011;36308;46.312;25.288;2023-09-08T11:38:28;7.75;;;2.90;;
50393;SDS011;36308;46.312;25.288;2023-09-08T11:40:56;3.63;;;2.60;;
50393;SDS011;36308;46.312;25.288;2023-09-08T11:43:23;3.65;;;3.00;;
50393;SDS011;36308;46.312;25.288;2023-09-08T11:45:50;4.20;;;3.28;;
50393;SDS011;36308;46.312;25.288;2023-09-08T11:48:15;6.90;;;3.35;;
50393;SDS011;36308;46.312;25.288;2023-09-08T11:50:41;3.22;;;2.92;;
50393;SDS011;36308;46.312;25.288;2023-09-08T11:53:08;6.22;;;3.10;;
50393;SDS011;36308;46.312;25.288;2023-09-08T11:55:34;5.38;;;3.03;;
50393;SDS011;36308;46.312;25.288;2023-09-08T11:58:02;4.45;;;2.97;;
50393;SDS011;36308;46.312;25.288;2023-09-08T12:00:28;4.03;;;2.90;;
50393;SDS011;36308;46.312;25.288;2023-09-08T12:02:54;7.45;;;5.00;;
50393;SDS011;36308;46.312;25.288;2023-09-08T12:05:21;6.10;;;3.35;;
50393;SDS011;36308;46.312;25.288;2023-09-08T12:07:49;4.35;;;3.25;;
50393;SDS011;36308;46.312;25.288;2023-09-08T12:10:18;4.07;;;3.13;;
50393;SDS011;36308;46.312;25.288;2023-09-08T12:12:44;6.68;;;3.03;;
50393;SDS011;36308;46.312;25.288;2023-09-08T12:15:11;4.28;;;3.40;;
50393;SDS011;36308;46.312;25.288;2023-09-08T12:17:46;5.25;;;3.28;;
50393;SDS011;36308;46.312;25.288;2023-09-08T12:20:15;4.03;;;3.28;;
50393;SDS011;36308;46.312;25.288;2023-09-08T12:22:48;6.22;;;3.58;;
50393;SDS011;36308;46.312;25.288;2023-09-08T12:25:17;4.07;;;3.22;;
50393;SDS011;36308;46.312;25.288;2023-09-08T12:27:49;4.03;;;3.22;;
50393;SDS011;36308;46.312;25.288;2023-09-08T12:30:19;5.82;;;2.85;;
50393;SDS011;36308;46.312;25.288;2023-09-08T12:32:47;5.25;;;3.10;;
50393;SDS011;36308;46.312;25.288;2023-09-08T12:35:19;3.72;;;3.15;;
50393;SDS011;36308;46.312;25.288;2023-09-08T12:40:27;8.65;;;3.60;;
50393;SDS011;36308;46.312;25.288;2023-09-08T12:42:54;9.32;;;3.75;;
50393;SDS011;36308;46.312;25.288;2023-09-08T12:45:21;5.88;;;3.20;;
50393;SDS011;36308;46.312;25.288;2023-09-08T12:47:48;6.80;;;3.53;;
50393;SDS011;36308;46.312;25.288;2023-09-08T12:50:13;4.53;;;2.90;;
50393;SDS011;36308;46.312;25.288;2023-09-08T12:52:39;8.48;;;3.70;;
50393;SDS011;36308;46.312;25.288;2023-09-08T12:55:05;3.72;;;2.80;;
50393;SDS011;36308;46.312;25.288;2023-09-08T12:57:31;7.50;;;3.08;;
50393;SDS011;36308;46.312;25.288;2023-09-08T12:59:57;5.82;;;2.75;;
50393;SDS011;36308;46.312;25.288;2023-09-08T13:02:22;3.15;;;2.70;;
50393;SDS011;36308;46.312;25.288;2023-09-08T13:04:48;5.28;;;2.80;;
50393;SDS011;36308;46.312;25.288;2023-09-08T13:07:16;4.38;;;2.92;;
50393;SDS011;36308;46.312;25.288;2023-09-08T13:09:42;3.78;;;3.08;;
50393;SDS011;36308;46.312;25.288;2023-09-08T13:12:08;3.88;;;2.70;;
50393;SDS011;36308;46.312;25.288;2023-09-08T13:14:35;4.65;;;3.65;;
50393;SDS011;36308;46.312;25.288;2023-09-08T13:17:01;4.00;;;2.90;;
50393;SDS011;36308;46.312;25.288;2023-09-08T13:19:26;4.25;;;3.15;;
50393;SDS011;36308;46.312;25.288;2023-09-08T13:21:52;4.20;;;3.15;;
50393;SDS011;36308;46.312;25.288;2023-09-08T13:24:17;3.35;;;3.05;;
50393;SDS011;36308;46.312;25.288;2023-09-08T13:26:44;3.95;;;2.95;;
50393;SDS011;36308;46.312;25.288;2023-09-08T13:29:10;4.60;;;2.97;;
50393;SDS011;36308;46.312;25.288;2023-09-08T13:31:35;4.03;;;2.83;;
50393;SDS011;36308;46.312;25.288;2023-09-08T13:34:01;4.32;;;3.08;;
50393;SDS011;36308;46.312;25.288;2023-09-08T13:36:26;3.95;;;3.00;;
50393;SDS011;36308;46.312;25.288;2023-09-08T13:38:52;3.20;;;2.80;;
50393;SDS011;36308;46.312;25.288;2023-09-08T13:41:17;5.10;;;3.28;;
50393;SDS011;36308;46.312;25.288;2023-09-08T13:43:43;6.45;;;3.40;;
50393;SDS011;36308;46.312;25.288;2023-09-08T13:46:08;6.57;;;3.20;;
50393;SDS011;36308;46.312;25.288;2023-09-08T13:48:34;5.95;;;3.05;;
50393;SDS011;36308;46.312;25.288;2023-09-08T13:51:02;5.57;;;3.10;;
50393;SDS011;36308;46.312;25.288;2023-09-08T13:53:28;4.50;;;2.97;;
50393;SDS011;36308;46.312;25.288;2023-09-08T13:55:56;4.05;;;2.80;;
50393;SDS011;36308;46.312;25.288;2023-09-08T13:58:21;4.40;;;3.25;;
50393;SDS011;36308;46.312;25.288;2023-09-08T14:00:47;3.70;;;2.88;;
50393;SDS011;36308;46.312;25.288;2023-09-08T14:03:14;5.88;;;3.20;;
50393;SDS011;36308;46.312;25.288;2023-09-08T14:05:40;6.00;;;3.03;;
50393;SDS011;36308;46.312;25.288;2023-09-08T14:08:05;11.57;;;7.65;;
50393;SDS011;36308;46.312;25.288;2023-09-08T14:10:31;5.82;;;3.30;;
50393;SDS011;36308;46.312;25.288;2023-09-08T14:12:56;3.60;;;3.10;;
50393;SDS011;36308;46.312;25.288;2023-09-08T14:15:22;3.10;;;2.80;;
50393;SDS011;36308;46.312;25.288;2023-09-08T14:17:47;12.73;;;9.35;;
50393;SDS011;36308;46.312;25.288;2023-09-08T14:20:13;24.10;;;18.33;;
50393;SDS011;36308;46.312;25.288;2023-09-08T14:22:38;8.75;;;7.05;;
50393;SDS011;36308;46.312;25.288;2023-09-08T14:25:04;23.25;;;16.98;;
50393;SDS011;36308;46.312;25.288;2023-09-08T14:27:30;35.83;;;25.50;;
50393;SDS011;36308;46.312;25.288;2023-09-08T14:29:56;4.95;;;3.95;;
50393;SDS011;36308;46.312;25.288;2023-09-08T14:32:21;3.45;;;2.95;;
50393;SDS011;36308;46.312;25.288;2023-09-08T14:34:48;10.73;;;7.38;;
50393;SDS011;36308;46.312;25.288;2023-09-08T14:37:13;6.97;;;5.85;;
50393;SDS011;36308;46.312;25.288;2023-09-08T14:39:40;4.45;;;3.20;;
50393;SDS011;36308;46.312;25.288;2023-09-08T14:42:05;4.35;;;2.70;;
50393;SDS011;36308;46.312;25.288;2023-09-08T14:44:31;4.93;;;3.30;;
50393;SDS011;36308;46.312;25.288;2023-09-08T14:46:56;6.00;;;3.08;;
50393;SDS011;36308;46.312;25.288;2023-09-08T14:49:22;4.40;;;3.35;;
50393;SDS011;36308;46.312;25.288;2023-09-08T14:51:47;4.18;;;3.35;;